Blevins, Arkansas
Current Conditions -  °F | °C
As of 2:56 PM on Sunday 23 Nov 2014 (Local Time) from KADF Reporting Station
Scattered Clouds Scattered Clouds  
Wind Chill: 69°   Ceiling: Unl
Heat Index: 69°   Visibility: 10mi
Dew Point: 63°   Wind: 9mph
Humidity: 81%   Direction: 190°S
Pressure: 29.35"   Gusts: NA
Location:  33.87°N, 93.58°W
Report Text: KADF 232056Z AUTO 19008KT 10SM SCT017 SCT024 21/17 A2935 RMK AO2 58033 T02050172 SLP953
Loading
Personal Weather Stations






























Interactive Weather Map New forecast layout! Learn more

10-Day Weather Forecast

Advertisements
Track Severe Weather on mobile